createdAt,value
2019-04-06T00:01:32.009Z,72.13
2019-04-06T00:04:01.098Z,63.10
2019-04-06T00:06:29.877Z,65.53
2019-04-06T00:08:58.665Z,70.40
2019-04-06T00:11:27.413Z,71.23
2019-04-06T00:13:56.280Z,68.17
2019-04-06T00:16:25.122Z,73.60
2019-04-06T00:18:54.128Z,67.37
2019-04-06T00:21:22.882Z,70.83
2019-04-06T00:23:51.661Z,70.23
2019-04-06T00:26:20.520Z,64.87
2019-04-06T00:28:49.265Z,70.57
2019-04-06T00:31:46.129Z,67.30
2019-04-06T00:34:14.953Z,64.87
2019-04-06T00:36:43.714Z,66.17
2019-04-06T00:39:12.501Z,61.07
2019-04-06T00:41:41.261Z,64.47
2019-04-06T00:44:10.004Z,65.67
2019-04-06T00:46:39.066Z,62.00
2019-04-06T00:49:07.882Z,66.87
2019-04-06T00:51:36.657Z,64.30
2019-04-06T00:54:05.653Z,63.17
2019-04-06T00:56:34.516Z,71.33
2019-04-06T00:59:03.326Z,65.17
2019-04-06T01:01:32.177Z,61.70
2019-04-06T01:04:00.933Z,60.73
2019-04-06T01:06:29.824Z,63.07
2019-04-06T01:08:59.081Z,63.63
2019-04-06T01:11:28.008Z,62.27
2019-04-06T01:13:56.753Z,60.93
2019-04-06T01:16:25.599Z,61.37
2019-04-06T01:18:54.366Z,63.93
2019-04-06T01:21:23.181Z,58.30
2019-04-06T01:23:51.958Z,59.10
2019-04-06T01:26:20.780Z,58.17
2019-04-06T01:28:50.198Z,55.63
2019-04-06T01:31:18.937Z,53.70
2019-04-06T01:33:48.034Z,58.80
2019-04-06T01:36:16.869Z,49.70
2019-04-06T01:38:45.694Z,54.07
2019-04-06T01:41:14.444Z,54.23
2019-04-06T01:43:43.562Z,49.67
2019-04-06T01:46:12.637Z,49.70
2019-04-06T01:48:41.391Z,51.67
2019-04-06T01:51:10.554Z,52.23
2019-04-06T01:53:39.297Z,48.33
2019-04-06T01:56:17.900Z,48.37
2019-04-06T01:58:39.126Z,46.33
2019-04-06T02:01:15.800Z,45.40
2019-04-06T02:03:44.566Z,43.13
2019-04-06T02:06:13.365Z,43.00
2019-04-06T02:08:42.142Z,44.77
2019-04-06T02:11:10.949Z,43.20
2019-04-06T02:13:39.745Z,42.33
2019-04-06T02:16:08.625Z,44.60
2019-04-06T02:18:37.393Z,44.67
2019-04-06T02:21:06.213Z,44.57
2019-04-06T02:23:34.960Z,42.93
2019-04-06T02:26:03.780Z,41.67
2019-04-06T02:28:32.627Z,42.67
2019-04-06T02:31:11.298Z,44.33
2019-04-06T02:34:05.267Z,41.10
2019-04-06T02:36:49.998Z,36.73
2019-04-06T02:39:36.999Z,35.90
2019-04-06T02:42:18.685Z,42.50
2019-04-06T02:44:47.521Z,40.33
2019-04-06T02:47:16.568Z,39.20
2019-04-06T02:49:45.363Z,42.63
2019-04-06T02:52:14.126Z,42.23
2019-04-06T02:54:42.936Z,42.57
2019-04-06T02:57:11.686Z,40.43
2019-04-06T02:59:40.550Z,40.07
2019-04-06T03:02:09.388Z,37.83
2019-04-06T03:04:38.333Z,35.80
2019-04-06T03:07:07.081Z,36.27
2019-04-06T03:09:35.903Z,35.67
2019-04-06T03:12:04.922Z,35.60
2019-04-06T03:14:33.880Z,36.00
2019-04-06T03:17:02.765Z,35.57
2019-04-06T03:19:31.644Z,37.73
2019-04-06T03:22:00.486Z,35.37
2019-04-06T03:24:29.403Z,36.63
2019-04-06T03:27:02.052Z,34.20
2019-04-06T03:29:28.714Z,35.33
2019-04-06T03:31:57.471Z,35.80
2019-04-06T03:34:26.290Z,40.43
2019-04-06T03:36:55.106Z,35.80
2019-04-06T03:39:23.874Z,37.50
2019-04-06T03:41:52.673Z,37.40
2019-04-06T03:44:21.414Z,34.17
2019-04-06T03:46:50.198Z,42.43
2019-04-06T03:49:19.317Z,37.40
2019-04-06T03:51:48.196Z,35.63
2019-04-06T03:54:17.063Z,35.63
2019-04-06T03:56:45.802Z,33.47
2019-04-06T03:59:14.573Z,35.23
2019-04-06T04:01:43.391Z,38.43
2019-04-06T04:04:12.163Z,36.03
2019-04-06T04:06:40.909Z,33.60
2019-04-06T04:09:09.930Z,33.43
2019-04-06T04:11:38.671Z,35.73
2019-04-06T04:14:07.592Z,35.17
2019-04-06T04:16:36.402Z,37.43
2019-04-06T04:19:05.393Z,29.87
2019-04-06T04:21:34.257Z,30.90
2019-04-06T04:24:03.126Z,34.20
2019-04-06T04:26:31.950Z,34.67
2019-04-06T04:29:00.696Z,34.27
2019-04-06T04:31:29.795Z,35.97
2019-04-06T04:33:58.628Z,32.50
2019-04-06T04:36:27.455Z,32.27
2019-04-06T04:38:56.274Z,34.60
2019-04-06T04:41:25.431Z,33.53
2019-04-06T04:43:54.225Z,33.37
2019-04-06T04:46:23.053Z,30.50
2019-04-06T04:48:51.826Z,32.17
2019-04-06T04:51:20.929Z,34.87
2019-04-06T04:53:49.781Z,31.50
2019-04-06T04:56:18.832Z,34.53
2019-04-06T04:58:47.725Z,29.47
2019-04-06T05:01:16.856Z,29.47
2019-04-06T05:03:45.780Z,28.30
2019-04-06T05:06:14.705Z,32.40
2019-04-06T05:08:43.754Z,31.33
2019-04-06T05:11:12.489Z,31.10
2019-04-06T05:13:41.275Z,30.80
2019-04-06T05:16:11.586Z,32.43
2019-04-06T05:18:41.948Z,27.57
2019-04-06T05:21:11.961Z,29.63
2019-04-06T05:23:41.086Z,28.53
2019-04-06T05:26:10.141Z,29.60
2019-04-06T05:28:38.950Z,30.13
2019-04-06T05:31:08.036Z,30.43
2019-04-06T05:33:37.281Z,29.97
2019-04-06T05:36:06.435Z,28.50
2019-04-06T05:38:35.477Z,32.13
2019-04-06T05:41:04.608Z,29.40
2019-04-06T05:43:33.605Z,29.80
2019-04-06T05:46:02.446Z,34.87
2019-04-06T05:48:31.354Z,37.70
2019-04-06T05:51:03.910Z,36.17
2019-04-06T05:53:32.742Z,35.37
2019-04-06T05:56:04.374Z,35.07
2019-04-06T05:58:33.134Z,33.40
2019-04-06T06:01:03.982Z,33.23
2019-04-06T06:03:32.610Z,31.70
2019-04-06T06:06:01.536Z,39.33
2019-04-06T06:08:30.580Z,36.60
2019-04-06T06:10:59.656Z,37.83
2019-04-06T06:13:29.937Z,36.53
2019-04-06T06:15:58.768Z,36.50
2019-04-06T06:18:27.786Z,30.27
2019-04-06T06:20:56.734Z,27.33
2019-04-06T06:23:25.649Z,28.77
2019-04-06T06:25:54.396Z,28.50
2019-04-06T06:28:23.443Z,25.67
2019-04-06T06:30:52.478Z,26.40
2019-04-06T06:33:21.349Z,24.90
2019-04-06T06:35:50.121Z,26.10
2019-04-06T06:38:19.312Z,26.77
2019-04-06T06:40:48.445Z,28.43
2019-04-06T06:43:17.232Z,22.37
2019-04-06T06:45:45.985Z,21.53
2019-04-06T06:48:14.717Z,23.73
2019-04-06T06:50:43.809Z,23.03
2019-04-06T06:53:12.557Z,30.07
2019-04-06T06:55:41.318Z,27.30
2019-04-06T06:58:10.450Z,25.90
2019-04-06T07:00:39.419Z,21.87
2019-04-06T07:03:08.273Z,22.20
2019-04-06T07:05:37.163Z,24.07
2019-04-06T07:08:06.059Z,21.97
2019-04-06T07:10:35.225Z,24.03
2019-04-06T07:13:04.055Z,24.13
2019-04-06T07:15:33.104Z,25.07
2019-04-06T07:18:02.016Z,23.20
2019-04-06T07:20:31.216Z,21.43
2019-04-06T07:23:00.078Z,26.20
2019-04-06T07:25:29.020Z,21.97
2019-04-06T07:27:58.054Z,22.77
2019-04-06T07:30:27.908Z,61.53
2019-04-06T07:32:56.741Z,21.13
2019-04-06T07:35:25.581Z,22.37
2019-04-06T07:37:54.441Z,23.20
2019-04-06T07:40:23.185Z,22.10
2019-04-06T07:42:52.082Z,24.43
2019-04-06T07:45:20.893Z,24.57
2019-04-06T07:47:49.721Z,22.13
2019-04-06T07:50:18.902Z,22.83
2019-04-06T07:52:47.910Z,26.60
2019-04-06T07:55:16.717Z,41.60
2019-04-06T07:57:45.453Z,21.57
2019-04-06T08:00:14.481Z,23.70
2019-04-06T08:02:43.303Z,27.30
2019-04-06T08:05:12.478Z,23.37
2019-04-06T08:07:41.429Z,22.60
2019-04-06T08:10:10.269Z,26.67
2019-04-06T08:12:39.044Z,20.73
2019-04-06T08:15:14.377Z,22.67
2019-04-06T08:17:43.521Z,24.53
2019-04-06T08:20:12.429Z,27.93
2019-04-06T08:22:41.359Z,26.90
2019-04-06T08:25:10.518Z,25.00
2019-04-06T08:27:39.307Z,25.67
2019-04-06T08:30:09.058Z,22.57
2019-04-06T08:32:37.941Z,22.53
2019-04-06T08:35:07.418Z,21.93
2019-04-06T08:37:36.498Z,24.60
2019-04-06T08:40:06.554Z,21.50
2019-04-06T08:42:35.399Z,23.83
2019-04-06T08:45:04.569Z,24.60
2019-04-06T08:47:33.780Z,23.40
2019-04-06T08:50:02.686Z,23.60
2019-04-06T08:52:31.557Z,25.70
2019-04-06T08:55:00.552Z,23.57
2019-04-06T08:57:29.339Z,24.03
2019-04-06T08:59:58.179Z,22.23
2019-04-06T09:02:28.499Z,27.13
2019-04-06T09:04:57.621Z,26.77
2019-04-06T09:07:26.382Z,22.33
2019-04-06T09:09:55.145Z,21.70
2019-04-06T09:12:23.935Z,25.93
2019-04-06T09:14:52.703Z,22.50
2019-04-06T09:17:21.710Z,25.00
2019-04-06T09:19:50.466Z,23.60
2019-04-06T09:22:19.572Z,25.00
2019-04-06T09:24:48.512Z,24.97
2019-04-06T09:27:17.364Z,26.43
2019-04-06T09:29:46.136Z,24.57
2019-04-06T09:32:15.285Z,24.80
2019-04-06T09:34:44.279Z,24.23
2019-04-06T09:37:13.471Z,26.40
2019-04-06T09:39:42.214Z,27.13
2019-04-06T09:42:11.158Z,26.20
2019-04-06T09:44:46.413Z,26.20
2019-04-06T09:47:28.403Z,28.40
2019-04-06T09:50:14.830Z,25.13
2019-04-06T09:53:04.550Z,28.57
2019-04-06T09:55:43.128Z,24.73
2019-04-06T09:58:51.105Z,29.03
2019-04-06T10:01:45.233Z,25.53
2019-04-06T10:04:33.280Z,26.17
2019-04-06T10:07:18.425Z,25.13
2019-04-06T10:09:58.388Z,22.45
2019-04-06T10:12:40.760Z,28.90
2019-04-06T10:15:32.071Z,25.33
2019-04-06T10:18:19.646Z,23.85
2019-04-06T10:21:15.288Z,28.73
2019-04-06T10:23:58.735Z,23.57
2019-04-06T10:26:38.060Z,27.82
2019-04-06T10:29:48.268Z,22.95
2019-04-06T10:32:27.364Z,29.20
2019-04-06T10:35:15.591Z,24.45
2019-04-06T10:38:19.222Z,24.05
2019-04-06T10:40:59.509Z,31.30
2019-04-06T10:43:47.401Z,23.70
2019-04-06T10:46:44.682Z,25.05
2019-04-06T10:49:27.558Z,24.70
2019-04-06T10:52:21.709Z,22.40
2019-04-06T10:55:16.100Z,21.48
2019-04-06T10:57:52.150Z,17.50
2019-04-06T11:00:28.944Z,21.40
2019-04-06T11:03:20.092Z,20.97
2019-04-06T11:06:11.166Z,20.62
2019-04-06T11:08:48.917Z,17.23
2019-04-06T11:11:39.816Z,18.05
2019-04-06T11:14:33.943Z,19.85
2019-04-06T11:17:12.007Z,20.45
2019-04-06T11:19:58.881Z,19.70
2019-04-06T11:22:49.826Z,21.37
2019-04-06T11:25:27.779Z,21.12
2019-04-06T11:28:11.588Z,19.90
2019-04-06T11:30:54.063Z,20.45
2019-04-06T11:33:40.473Z,23.22
2019-04-06T11:36:23.405Z,22.32
2019-04-06T11:39:10.284Z,29.20
2019-04-06T11:42:04.426Z,23.10
2019-04-06T11:44:39.546Z,22.52
2019-04-06T11:47:26.199Z,24.95
2019-04-06T11:50:14.983Z,24.70
2019-04-06T11:52:51.104Z,23.22
2019-04-06T11:55:57.549Z,21.73
2019-04-06T11:58:42.260Z,24.40
2019-04-06T12:01:22.978Z,21.27
2019-04-06T12:04:03.814Z,24.47
2019-04-06T12:06:48.038Z,21.10
2019-04-06T12:09:28.217Z,23.65
2019-04-06T12:12:07.378Z,24.92
2019-04-06T12:14:47.861Z,20.82
2019-04-06T12:17:34.398Z,24.10
2019-04-06T12:20:20.873Z,24.75
2019-04-06T12:23:27.368Z,25.40
2019-04-06T12:26:04.059Z,22.55
2019-04-06T12:28:50.857Z,23.35
2019-04-06T12:31:38.704Z,23.77
2019-04-06T12:34:34.635Z,23.70
2019-04-06T12:37:25.602Z,22.20
2019-04-06T12:40:10.514Z,21.75
2019-04-06T12:42:45.184Z,19.87
2019-04-06T12:45:25.096Z,20.25
2019-04-06T12:48:25.244Z,24.15
2019-04-06T12:51:09.059Z,22.75
2019-04-06T12:54:09.265Z,26.97
2019-04-06T12:56:50.398Z,26.37
2019-04-06T12:59:36.739Z,26.57
2019-04-06T13:02:14.242Z,23.30
2019-04-06T13:05:12.394Z,26.73
2019-04-06T13:08:14.637Z,27.02
2019-04-06T13:11:08.870Z,23.25
2019-04-06T13:13:43.913Z,22.15
2019-04-06T13:16:21.793Z,26.17
2019-04-06T13:19:09.654Z,24.30
2019-04-06T13:21:48.858Z,23.90
2019-04-06T13:24:36.713Z,21.77
2019-04-06T13:27:27.621Z,25.43
2019-04-06T13:30:30.861Z,22.73
2019-04-06T13:33:13.406Z,20.08
2019-04-06T13:35:57.635Z,22.58
2019-04-06T13:38:55.120Z,20.65
2019-04-06T13:41:48.961Z,22.32
2019-04-06T13:44:33.788Z,22.93
2019-04-06T13:47:12.706Z,21.37
2019-04-06T13:50:00.624Z,22.67
2019-04-06T13:52:46.201Z,21.57
2019-04-06T13:55:37.241Z,17.48
2019-04-06T13:58:33.220Z,18.75
2019-04-06T14:01:18.109Z,17.57
2019-04-06T14:03:56.208Z,15.70
2019-04-06T14:06:32.803Z,16.93
2019-04-06T14:09:19.792Z,21.33
2019-04-06T14:12:00.969Z,19.05
2019-04-06T14:14:47.707Z,16.32
2019-04-06T14:17:42.259Z,15.38
2019-04-06T14:20:19.347Z,18.32
2019-04-06T14:23:08.017Z,16.10
2019-04-06T14:25:59.094Z,17.42
2019-04-06T14:28:46.214Z,16.05
2019-04-06T14:31:30.586Z,15.15
2019-04-06T14:34:15.387Z,14.80
2019-04-06T14:36:59.793Z,16.62
2019-04-06T14:39:56.492Z,13.53
2019-04-06T14:42:34.145Z,14.53
2019-04-06T14:45:17.842Z,19.77
2019-04-06T14:47:56.885Z,16.27
2019-04-06T14:50:47.933Z,14.80
2019-04-06T14:53:34.411Z,13.83
2019-04-06T14:56:10.492Z,15.28
2019-04-06T14:58:51.070Z,14.85
2019-04-06T15:01:38.441Z,15.40
2019-04-06T15:04:32.541Z,18.05
2019-04-06T15:07:19.314Z,19.62
2019-04-06T15:10:13.437Z,16.37
2019-04-06T15:13:04.511Z,15.83
2019-04-06T15:15:41.941Z,17.67
2019-04-06T15:18:30.139Z,20.27
2019-04-06T15:21:14.067Z,25.55
2019-04-06T15:24:00.705Z,16.00
2019-04-06T15:26:35.464Z,16.02
2019-04-06T15:29:29.648Z,15.85
2019-04-06T15:32:06.626Z,16.10
2019-04-06T15:34:57.722Z,16.00
2019-04-06T15:37:37.977Z,17.30
2019-04-06T15:40:22.022Z,17.90
2019-04-06T15:43:08.772Z,17.67
2019-04-06T15:45:59.748Z,16.90
2019-04-06T15:48:46.402Z,18.05
2019-04-06T15:51:25.554Z,23.98
2019-04-06T15:54:04.417Z,20.65
2019-04-06T15:56:56.241Z,17.12
2019-04-06T15:59:32.405Z,18.35
2019-04-06T16:02:16.556Z,16.05
2019-04-06T16:04:51.620Z,17.32
2019-04-06T16:07:33.238Z,20.05
2019-04-06T16:10:28.910Z,18.02
2019-04-06T16:13:14.305Z,18.23
2019-04-06T16:15:47.776Z,16.97
2019-04-06T16:18:48.285Z,19.50
2019-04-06T16:21:36.181Z,20.90
2019-04-06T16:24:15.349Z,17.95
2019-04-06T16:26:49.682Z,18.48
2019-04-06T16:29:37.614Z,17.35
2019-04-06T16:32:34.165Z,22.85
2019-04-06T16:35:23.255Z,19.17
2019-04-06T16:38:23.834Z,19.60
2019-04-06T16:41:06.296Z,21.23
2019-04-06T16:43:50.133Z,23.30
2019-04-06T16:46:45.779Z,18.15
2019-04-06T16:49:27.307Z,19.92
2019-04-06T16:52:15.145Z,22.45
2019-04-06T16:54:50.783Z,21.53
2019-04-06T16:57:48.301Z,18.57
2019-04-06T17:00:24.911Z,17.60
2019-04-06T17:03:10.142Z,16.70
2019-04-06T17:05:54.362Z,18.95
2019-04-06T17:08:36.110Z,16.63
2019-04-06T17:11:34.781Z,16.00
2019-04-06T17:14:12.520Z,17.40
2019-04-06T17:17:12.909Z,20.07
2019-04-06T17:19:51.998Z,16.23
2019-04-06T17:22:33.599Z,17.23
2019-04-06T17:25:23.335Z,16.87
2019-04-06T17:28:07.901Z,17.47
2019-04-06T17:30:58.854Z,20.83
2019-04-06T17:33:35.018Z,19.37
2019-04-06T17:36:17.979Z,19.20
2019-04-06T17:39:08.455Z,18.80
2019-04-06T17:41:56.721Z,20.77
2019-04-06T17:44:43.170Z,19.57
2019-04-06T17:47:40.077Z,20.33
2019-04-06T17:50:27.045Z,19.27
2019-04-06T17:53:21.136Z,21.20
2019-04-06T17:56:14.915Z,21.70
2019-04-06T17:59:01.947Z,22.80
2019-04-06T18:01:49.081Z,21.47
2019-04-06T18:04:29.789Z,22.50
2019-04-06T18:07:21.267Z,23.20
2019-04-06T18:10:01.099Z,20.20
2019-04-06T18:12:40.531Z,22.00
2019-04-06T18:15:09.902Z,23.27
2019-04-06T18:17:38.689Z,23.77
2019-04-06T18:20:08.528Z,23.10
2019-04-06T18:22:37.875Z,27.23
2019-04-06T18:25:07.403Z,24.23
2019-04-06T18:27:36.264Z,24.77
2019-04-06T18:30:06.662Z,27.17
2019-04-06T18:32:43.242Z,25.60
2019-04-06T18:35:12.394Z,34.27
2019-04-06T18:37:45.957Z,25.03
2019-04-06T18:40:23.050Z,24.33
2019-04-06T18:42:52.064Z,28.33
2019-04-06T18:45:20.911Z,28.03
2019-04-06T18:47:49.928Z,28.00
2019-04-06T18:50:19.444Z,25.87
2019-04-06T18:52:48.683Z,26.13
2019-04-06T18:55:17.883Z,28.63
2019-04-06T18:57:46.959Z,27.23
2019-04-06T19:00:16.497Z,25.43
2019-04-06T19:02:46.171Z,27.90
2019-04-06T19:05:15.737Z,32.60
2019-04-06T19:07:45.740Z,33.10
2019-04-06T19:10:15.283Z,31.87
2019-04-06T19:12:47.414Z,35.27
2019-04-06T19:15:16.530Z,32.33
2019-04-06T19:17:46.187Z,32.47
2019-04-06T19:20:15.936Z,34.03
2019-04-06T19:22:45.398Z,36.93
2019-04-06T19:25:18.816Z,35.07
2019-04-06T19:27:47.719Z,36.63
2019-04-06T19:30:20.403Z,31.63
2019-04-06T19:32:49.545Z,32.63
2019-04-06T19:35:18.708Z,32.77
2019-04-06T19:37:47.614Z,32.47
2019-04-06T19:40:17.792Z,34.13
2019-04-06T19:42:46.529Z,35.30
2019-04-06T19:45:15.829Z,33.23
2019-04-06T19:47:45.131Z,34.20
2019-04-06T19:50:14.287Z,35.83
2019-04-06T19:52:43.080Z,34.17
2019-04-06T19:55:12.650Z,37.20
2019-04-06T19:57:41.569Z,39.13
2019-04-06T20:00:11.821Z,34.80
2019-04-06T20:02:40.670Z,34.70
2019-04-06T20:05:10.598Z,34.53
2019-04-06T20:07:39.752Z,40.33
2019-04-06T20:10:09.457Z,37.93
2019-04-06T20:12:38.934Z,35.70
2019-04-06T20:15:08.727Z,37.30
2019-04-06T20:17:37.805Z,34.57
2019-04-06T20:20:06.930Z,35.17
2019-04-06T20:22:35.776Z,35.70
2019-04-06T20:25:05.426Z,34.00
2019-04-06T20:27:34.262Z,34.87
2019-04-06T20:30:04.517Z,37.90
2019-04-06T20:32:33.345Z,36.00
2019-04-06T20:35:02.123Z,36.97
2019-04-06T20:37:30.898Z,38.03
2019-04-06T20:39:59.641Z,38.03
2019-04-06T20:42:29.170Z,40.17
2019-04-06T20:44:58.436Z,39.63
2019-04-06T20:47:27.695Z,41.00
2019-04-06T20:49:56.595Z,39.97
2019-04-06T20:52:25.351Z,38.20
2019-04-06T20:54:54.145Z,38.33
2019-04-06T20:57:23.099Z,37.33
2019-04-06T20:59:52.028Z,37.93
